createdAt,value
2018-01-13T11:53:30.338Z,50.30
2018-01-13T11:56:08.872Z,50.80
2018-01-13T11:58:47.252Z,51.00
2018-01-13T12:01:25.503Z,51.80
2018-01-13T12:06:31.182Z,51.10
2018-01-13T12:09:05.423Z,51.00
2018-01-13T12:11:35.386Z,51.60
2018-01-13T12:14:09.649Z,50.90
2018-01-13T12:16:42.744Z,50.90
2018-01-13T12:19:19.513Z,51.00
2018-01-13T12:21:56.016Z,50.10
2018-01-13T12:24:26.137Z,50.00
2018-01-13T12:26:55.982Z,50.10
2018-01-13T12:29:38.352Z,50.30
2018-01-13T12:32:15.481Z,50.50
2018-01-13T12:34:48.342Z,50.50
2018-01-13T12:37:19.498Z,49.80
2018-01-13T12:39:55.691Z,50.00
2018-01-13T12:42:34.283Z,50.10
2018-01-13T12:53:31.681Z,50.30
2018-01-13T12:56:12.308Z,50.30
2018-01-13T12:58:51.110Z,50.30
2018-01-13T13:01:38.477Z,50.20
2018-01-13T13:04:19.614Z,50.20
2018-01-13T13:09:32.904Z,50.00
2018-01-13T13:12:06.958Z,49.70
2018-01-13T13:14:44.487Z,49.20
2018-01-13T13:22:50.762Z,49.90
2018-01-13T13:25:25.658Z,50.30
2018-01-13T13:28:00.456Z,51.00
2018-01-13T13:30:35.633Z,51.60
2018-01-13T13:33:12.435Z,52.10
2018-01-13T13:35:52.146Z,52.60
2018-01-13T14:01:28.507Z,51.30
2018-01-13T14:03:46.047Z,51.40
2018-01-13T14:06:24.015Z,51.40
2018-01-13T14:09:02.163Z,51.40
2018-01-13T14:11:41.358Z,50.80
2018-01-13T14:14:17.203Z,50.90
2018-01-13T14:16:54.992Z,50.00
2018-01-13T14:19:31.985Z,46.50
2018-01-13T14:22:09.643Z,46.90
2018-01-13T14:30:17.951Z,49.00
2018-01-13T14:32:57.839Z,49.00
2018-01-13T14:46:30.245Z,49.70
2018-01-13T14:49:02.089Z,50.10
2018-01-13T14:51:32.548Z,50.20
2018-01-13T14:54:03.970Z,50.80
2018-01-13T14:56:36.488Z,51.10
2018-01-13T14:59:05.262Z,51.40
2018-01-13T15:01:33.469Z,52.40
